sensor_id;sensor_type;location;lat;lon;timestamp;temperature;humidity
36816;DHT22;22760;51.910;4.474;2022-07-31T00:02:05;20.00;99.90
36816;DHT22;22760;51.910;4.474;2022-07-31T00:04:32;20.00;99.90
36816;DHT22;22760;51.910;4.474;2022-07-31T00:06:59;20.00;99.90
36816;DHT22;22760;51.910;4.474;2022-07-31T00:09:26;20.00;99.90
36816;DHT22;22760;51.910;4.474;2022-07-31T00:11:54;19.90;99.90
36816;DHT22;22760;51.910;4.474;2022-07-31T00:14:20;20.00;99.90
36816;DHT22;22760;51.910;4.474;2022-07-31T00:16:49;20.00;99.90
36816;DHT22;22760;51.910;4.474;2022-07-31T00:19:15;19.90;99.90
36816;DHT22;22760;51.910;4.474;2022-07-31T00:21:42;20.00;99.90
36816;DHT22;22760;51.910;4.474;2022-07-31T00:24:09;20.00;99.90
36816;DHT22;22760;51.910;4.474;2022-07-31T00:26:36;20.00;99.90
36816;DHT22;22760;51.910;4.474;2022-07-31T00:29:03;20.00;99.90
36816;DHT22;22760;51.910;4.474;2022-07-31T00:31:30;19.90;99.90
36816;DHT22;22760;51.910;4.474;2022-07-31T00:33:58;19.90;99.90
36816;DHT22;22760;51.910;4.474;2022-07-31T00:36:24;19.90;99.90
36816;DHT22;22760;51.910;4.474;2022-07-31T00:38:51;19.90;99.90
36816;DHT22;22760;51.910;4.474;2022-07-31T00:41:18;19.90;99.90
36816;DHT22;22760;51.910;4.474;2022-07-31T00:43:45;19.90;99.90
36816;DHT22;22760;51.910;4.474;2022-07-31T00:46:11;19.90;99.90
36816;DHT22;22760;51.910;4.474;2022-07-31T00:48:38;19.90;99.90
36816;DHT22;22760;51.910;4.474;2022-07-31T00:51:06;19.80;99.90
36816;DHT22;22760;51.910;4.474;2022-07-31T00:53:33;19.80;99.90
36816;DHT22;22760;51.910;4.474;2022-07-31T00:56:00;19.80;99.90
36816;DHT22;22760;51.910;4.474;2022-07-31T00:58:27;19.80;99.90
36816;DHT22;22760;51.910;4.474;2022-07-31T01:00:53;19.80;99.90
36816;DHT22;22760;51.910;4.474;2022-07-31T01:03:20;19.80;99.90
36816;DHT22;22760;51.910;4.474;2022-07-31T01:05:47;19.70;99.90
36816;DHT22;22760;51.910;4.474;2022-07-31T01:08:15;19.70;99.90
36816;DHT22;22760;51.910;4.474;2022-07-31T01:10:48;19.80;99.90
36816;DHT22;22760;51.910;4.474;2022-07-31T01:13:24;19.80;99.90
36816;DHT22;22760;51.910;4.474;2022-07-31T01:15:53;19.80;99.90
36816;DHT22;22760;51.910;4.474;2022-07-31T01:18:21;19.80;99.90
36816;DHT22;22760;51.910;4.474;2022-07-31T01:20:51;19.70;99.90
36816;DHT22;22760;51.910;4.474;2022-07-31T01:23:41;19.80;99.90
36816;DHT22;22760;51.910;4.474;2022-07-31T01:26:19;19.70;99.90
36816;DHT22;22760;51.910;4.474;2022-07-31T01:29:03;19.80;99.90
36816;DHT22;22760;51.910;4.474;2022-07-31T01:31:37;19.80;99.90
36816;DHT22;22760;51.910;4.474;2022-07-31T01:34:09;19.80;99.90
36816;DHT22;22760;51.910;4.474;2022-07-31T01:36:41;19.80;99.90
36816;DHT22;22760;51.910;4.474;2022-07-31T01:39:10;19.80;99.90
36816;DHT22;22760;51.910;4.474;2022-07-31T01:41:40;19.80;99.90
36816;DHT22;22760;51.910;4.474;2022-07-31T01:44:10;19.80;99.90
36816;DHT22;22760;51.910;4.474;2022-07-31T01:46:39;19.80;99.90
36816;DHT22;22760;51.910;4.474;2022-07-31T01:49:07;19.80;99.90
36816;DHT22;22760;51.910;4.474;2022-07-31T01:51:35;19.80;99.90
36816;DHT22;22760;51.910;4.474;2022-07-31T01:54:04;19.70;99.90
36816;DHT22;22760;51.910;4.474;2022-07-31T01:56:32;19.80;99.90
36816;DHT22;22760;51.910;4.474;2022-07-31T01:59:01;19.80;99.90
36816;DHT22;22760;51.910;4.474;2022-07-31T02:01:31;19.80;99.90
36816;DHT22;22760;51.910;4.474;2022-07-31T02:03:59;19.80;99.90
36816;DHT22;22760;51.910;4.474;2022-07-31T02:06:27;19.70;99.90
36816;DHT22;22760;51.910;4.474;2022-07-31T02:08:54;19.70;99.90
36816;DHT22;22760;51.910;4.474;2022-07-31T02:11:22;19.80;99.90
36816;DHT22;22760;51.910;4.474;2022-07-31T02:13:50;19.70;99.90
36816;DHT22;22760;51.910;4.474;2022-07-31T02:16:18;19.70;99.90
36816;DHT22;22760;51.910;4.474;2022-07-31T02:18:48;19.70;99.90
36816;DHT22;22760;51.910;4.474;2022-07-31T02:21:16;19.70;99.90
36816;DHT22;22760;51.910;4.474;2022-07-31T02:23:43;19.70;99.90
36816;DHT22;22760;51.910;4.474;2022-07-31T02:26:10;19.70;99.90
36816;DHT22;22760;51.910;4.474;2022-07-31T02:28:40;19.60;99.90
36816;DHT22;22760;51.910;4.474;2022-07-31T02:31:10;19.60;99.90
36816;DHT22;22760;51.910;4.474;2022-07-31T02:33:37;19.60;99.90
36816;DHT22;22760;51.910;4.474;2022-07-31T02:36:07;19.50;99.90
36816;DHT22;22760;51.910;4.474;2022-07-31T02:38:36;19.60;99.90
36816;DHT22;22760;51.910;4.474;2022-07-31T02:41:05;19.60;99.90
36816;DHT22;22760;51.910;4.474;2022-07-31T02:43:33;19.60;99.90
36816;DHT22;22760;51.910;4.474;2022-07-31T02:46:00;19.60;99.90
36816;DHT22;22760;51.910;4.474;2022-07-31T02:48:28;19.60;99.90
36816;DHT22;22760;51.910;4.474;2022-07-31T02:50:55;19.60;99.90
36816;DHT22;22760;51.910;4.474;2022-07-31T02:53:24;19.50;99.90
36816;DHT22;22760;51.910;4.474;2022-07-31T02:55:51;19.60;99.90
36816;DHT22;22760;51.910;4.474;2022-07-31T02:58:19;19.50;99.90
36816;DHT22;22760;51.910;4.474;2022-07-31T03:00:45;19.60;99.90
36816;DHT22;22760;51.910;4.474;2022-07-31T03:03:12;19.50;99.90
36816;DHT22;22760;51.910;4.474;2022-07-31T03:05:39;19.60;99.90
36816;DHT22;22760;51.910;4.474;2022-07-31T03:08:06;19.50;99.90
36816;DHT22;22760;51.910;4.474;2022-07-31T03:10:34;19.50;99.90
36816;DHT22;22760;51.910;4.474;2022-07-31T03:13:02;19.60;99.90
36816;DHT22;22760;51.910;4.474;2022-07-31T03:15:29;19.60;99.90
36816;DHT22;22760;51.910;4.474;2022-07-31T03:17:57;19.50;99.90
36816;DHT22;22760;51.910;4.474;2022-07-31T03:20:25;19.50;99.90
36816;DHT22;22760;51.910;4.474;2022-07-31T03:22:52;19.50;99.90
36816;DHT22;22760;51.910;4.474;2022-07-31T03:25:19;19.50;99.90
36816;DHT22;22760;51.910;4.474;2022-07-31T03:27:48;19.50;99.90
36816;DHT22;22760;51.910;4.474;2022-07-31T03:30:16;19.50;99.90
36816;DHT22;22760;51.910;4.474;2022-07-31T03:32:49;19.50;99.90
36816;DHT22;22760;51.910;4.474;2022-07-31T03:35:16;19.40;99.90
36816;DHT22;22760;51.910;4.474;2022-07-31T03:37:43;19.40;99.90
36816;DHT22;22760;51.910;4.474;2022-07-31T03:40:10;19.40;99.90
36816;DHT22;22760;51.910;4.474;2022-07-31T03:42:37;19.50;99.90
36816;DHT22;22760;51.910;4.474;2022-07-31T03:45:06;19.40;99.90
36816;DHT22;22760;51.910;4.474;2022-07-31T03:47:35;19.40;99.90
36816;DHT22;22760;51.910;4.474;2022-07-31T03:50:02;19.40;99.90
36816;DHT22;22760;51.910;4.474;2022-07-31T03:52:30;19.40;99.90
36816;DHT22;22760;51.910;4.474;2022-07-31T03:54:57;19.40;99.90
36816;DHT22;22760;51.910;4.474;2022-07-31T03:57:25;19.40;99.90
36816;DHT22;22760;51.910;4.474;2022-07-31T03:59:52;19.40;99.90
36816;DHT22;22760;51.910;4.474;2022-07-31T04:02:24;19.30;99.90
36816;DHT22;22760;51.910;4.474;2022-07-31T04:04:51;19.30;99.90
36816;DHT22;22760;51.910;4.474;2022-07-31T04:07:18;19.30;99.90
36816;DHT22;22760;51.910;4.474;2022-07-31T04:09:45;19.20;99.90
36816;DHT22;22760;51.910;4.474;2022-07-31T04:12:12;19.20;99.90
36816;DHT22;22760;51.910;4.474;2022-07-31T04:14:39;19.10;99.90
36816;DHT22;22760;51.910;4.474;2022-07-31T04:17:05;19.10;99.90
36816;DHT22;22760;51.910;4.474;2022-07-31T04:19:33;19.00;99.90
36816;DHT22;22760;51.910;4.474;2022-07-31T04:22:01;19.00;99.90
36816;DHT22;22760;51.910;4.474;2022-07-31T04:24:28;18.90;99.90
36816;DHT22;22760;51.910;4.474;2022-07-31T04:26:55;18.80;99.90
36816;DHT22;22760;51.910;4.474;2022-07-31T04:29:23;18.80;99.90
36816;DHT22;22760;51.910;4.474;2022-07-31T04:31:53;18.80;99.90
36816;DHT22;22760;51.910;4.474;2022-07-31T04:34:20;18.80;99.90
36816;DHT22;22760;51.910;4.474;2022-07-31T04:36:48;18.80;99.90
36816;DHT22;22760;51.910;4.474;2022-07-31T04:39:14;18.80;99.90
36816;DHT22;22760;51.910;4.474;2022-07-31T04:41:41;18.80;99.90
36816;DHT22;22760;51.910;4.474;2022-07-31T04:44:08;18.80;99.90
36816;DHT22;22760;51.910;4.474;2022-07-31T04:46:35;18.80;99.90
36816;DHT22;22760;51.910;4.474;2022-07-31T04:49:02;18.90;99.90
36816;DHT22;22760;51.910;4.474;2022-07-31T04:51:29;18.90;99.90
36816;DHT22;22760;51.910;4.474;2022-07-31T04:53:57;18.90;99.90
36816;DHT22;22760;51.910;4.474;2022-07-31T04:56:24;18.90;99.90
36816;DHT22;22760;51.910;4.474;2022-07-31T04:59:03;18.90;99.90
36816;DHT22;22760;51.910;4.474;2022-07-31T05:01:30;19.00;99.90
36816;DHT22;22760;51.910;4.474;2022-07-31T05:03:57;19.00;99.90
36816;DHT22;22760;51.910;4.474;2022-07-31T05:06:32;19.10;99.90
36816;DHT22;22760;51.910;4.474;2022-07-31T05:09:02;19.10;99.90
36816;DHT22;22760;51.910;4.474;2022-07-31T05:11:29;19.10;99.90
36816;DHT22;22760;51.910;4.474;2022-07-31T05:13:58;19.10;99.90
36816;DHT22;22760;51.910;4.474;2022-07-31T05:16:26;19.20;99.90
36816;DHT22;22760;51.910;4.474;2022-07-31T05:18:53;19.20;99.90
36816;DHT22;22760;51.910;4.474;2022-07-31T05:21:20;19.20;99.90
36816;DHT22;22760;51.910;4.474;2022-07-31T05:23:48;19.30;99.90
36816;DHT22;22760;51.910;4.474;2022-07-31T05:26:17;19.30;99.90
36816;DHT22;22760;51.910;4.474;2022-07-31T05:28:45;19.30;99.90
36816;DHT22;22760;51.910;4.474;2022-07-31T05:31:14;19.30;99.90
36816;DHT22;22760;51.910;4.474;2022-07-31T05:33:42;19.30;99.90
36816;DHT22;22760;51.910;4.474;2022-07-31T05:36:09;19.30;99.90
36816;DHT22;22760;51.910;4.474;2022-07-31T05:38:36;19.30;99.90
36816;DHT22;22760;51.910;4.474;2022-07-31T05:41:02;19.30;99.90
36816;DHT22;22760;51.910;4.474;2022-07-31T05:43:31;19.40;99.90
36816;DHT22;22760;51.910;4.474;2022-07-31T05:45:57;19.40;99.90
36816;DHT22;22760;51.910;4.474;2022-07-31T05:48:24;19.40;99.90
36816;DHT22;22760;51.910;4.474;2022-07-31T05:50:51;19.40;99.90
36816;DHT22;22760;51.910;4.474;2022-07-31T05:53:19;19.40;99.90
36816;DHT22;22760;51.910;4.474;2022-07-31T05:55:47;19.40;99.90
36816;DHT22;22760;51.910;4.474;2022-07-31T05:58:16;19.40;99.90
36816;DHT22;22760;51.910;4.474;2022-07-31T06:00:46;19.50;99.90
36816;DHT22;22760;51.910;4.474;2022-07-31T06:03:13;19.50;99.90
36816;DHT22;22760;51.910;4.474;2022-07-31T06:05:41;19.50;99.90
36816;DHT22;22760;51.910;4.474;2022-07-31T06:08:08;19.50;99.90
36816;DHT22;22760;51.910;4.474;2022-07-31T06:10:36;19.50;99.90
36816;DHT22;22760;51.910;4.474;2022-07-31T06:13:03;19.60;99.90
36816;DHT22;22760;51.910;4.474;2022-07-31T06:15:30;19.50;99.90
36816;DHT22;22760;51.910;4.474;2022-07-31T06:17:58;19.60;99.90
36816;DHT22;22760;51.910;4.474;2022-07-31T06:20:25;19.60;99.90
36816;DHT22;22760;51.910;4.474;2022-07-31T06:22:52;19.60;99.90
36816;DHT22;22760;51.910;4.474;2022-07-31T06:25:20;19.70;99.90
36816;DHT22;22760;51.910;4.474;2022-07-31T06:27:47;19.70;99.90
36816;DHT22;22760;51.910;4.474;2022-07-31T06:30:14;19.80;99.90
36816;DHT22;22760;51.910;4.474;2022-07-31T06:32:41;19.70;99.90
36816;DHT22;22760;51.910;4.474;2022-07-31T06:35:09;19.80;99.90
36816;DHT22;22760;51.910;4.474;2022-07-31T06:37:36;19.80;99.90
36816;DHT22;22760;51.910;4.474;2022-07-31T06:40:04;19.80;99.90
36816;DHT22;22760;51.910;4.474;2022-07-31T06:42:31;19.80;99.90
36816;DHT22;22760;51.910;4.474;2022-07-31T06:44:58;19.90;99.90
36816;DHT22;22760;51.910;4.474;2022-07-31T06:47:25;19.90;99.90
36816;DHT22;22760;51.910;4.474;2022-07-31T06:49:52;20.00;99.90
36816;DHT22;22760;51.910;4.474;2022-07-31T06:52:21;20.10;99.90
36816;DHT22;22760;51.910;4.474;2022-07-31T06:54:48;20.00;99.90
36816;DHT22;22760;51.910;4.474;2022-07-31T06:57:15;20.10;99.90
36816;DHT22;22760;51.910;4.474;2022-07-31T06:59:41;20.00;99.90
36816;DHT22;22760;51.910;4.474;2022-07-31T07:02:08;20.00;99.90
36816;DHT22;22760;51.910;4.474;2022-07-31T07:04:35;20.00;99.90
36816;DHT22;22760;51.910;4.474;2022-07-31T07:07:02;20.00;99.90
36816;DHT22;22760;51.910;4.474;2022-07-31T07:09:30;20.00;99.90
36816;DHT22;22760;51.910;4.474;2022-07-31T07:11:57;19.90;99.90
36816;DHT22;22760;51.910;4.474;2022-07-31T07:14:24;19.90;99.90
36816;DHT22;22760;51.910;4.474;2022-07-31T07:16:51;19.90;99.90
36816;DHT22;22760;51.910;4.474;2022-07-31T07:19:18;19.90;99.90
36816;DHT22;22760;51.910;4.474;2022-07-31T07:21:45;19.90;99.90
36816;DHT22;22760;51.910;4.474;2022-07-31T07:24:12;20.00;99.90
36816;DHT22;22760;51.910;4.474;2022-07-31T07:26:40;20.00;99.90
36816;DHT22;22760;51.910;4.474;2022-07-31T07:29:07;20.00;99.90
36816;DHT22;22760;51.910;4.474;2022-07-31T07:31:35;20.00;99.90
36816;DHT22;22760;51.910;4.474;2022-07-31T07:34:02;20.00;99.90
36816;DHT22;22760;51.910;4.474;2022-07-31T07:36:31;20.00;99.90
36816;DHT22;22760;51.910;4.474;2022-07-31T07:38:58;20.00;99.90
36816;DHT22;22760;51.910;4.474;2022-07-31T07:41:25;20.10;99.90
36816;DHT22;22760;51.910;4.474;2022-07-31T07:43:53;20.10;99.90
36816;DHT22;22760;51.910;4.474;2022-07-31T07:46:21;20.10;99.90
36816;DHT22;22760;51.910;4.474;2022-07-31T07:48:48;20.10;99.90
36816;DHT22;22760;51.910;4.474;2022-07-31T07:51:16;20.10;99.90
36816;DHT22;22760;51.910;4.474;2022-07-31T07:53:43;20.20;99.90
36816;DHT22;22760;51.910;4.474;2022-07-31T07:56:09;20.10;99.90
36816;DHT22;22760;51.910;4.474;2022-07-31T07:58:36;20.10;99.90
36816;DHT22;22760;51.910;4.474;2022-07-31T08:01:05;20.10;99.90
36816;DHT22;22760;51.910;4.474;2022-07-31T08:03:31;20.10;99.90
36816;DHT22;22760;51.910;4.474;2022-07-31T08:05:58;20.00;99.90
36816;DHT22;22760;51.910;4.474;2022-07-31T08:08:25;20.00;99.90
36816;DHT22;22760;51.910;4.474;2022-07-31T08:10:52;20.00;99.90
36816;DHT22;22760;51.910;4.474;2022-07-31T08:13:19;20.00;99.90
36816;DHT22;22760;51.910;4.474;2022-07-31T08:15:45;20.00;99.90
36816;DHT22;22760;51.910;4.474;2022-07-31T08:18:13;20.00;99.90
36816;DHT22;22760;51.910;4.474;2022-07-31T08:20:41;20.10;99.90
36816;DHT22;22760;51.910;4.474;2022-07-31T08:23:08;20.10;99.90
36816;DHT22;22760;51.910;4.474;2022-07-31T08:25:35;20.10;99.90
36816;DHT22;22760;51.910;4.474;2022-07-31T08:28:02;20.20;99.90
36816;DHT22;22760;51.910;4.474;2022-07-31T08:30:28;20.20;99.90
36816;DHT22;22760;51.910;4.474;2022-07-31T08:32:55;20.20;99.90
36816;DHT22;22760;51.910;4.474;2022-07-31T08:35:23;20.20;99.90
36816;DHT22;22760;51.910;4.474;2022-07-31T08:37:50;20.20;99.90
36816;DHT22;22760;51.910;4.474;2022-07-31T08:40:17;20.20;99.90
36816;DHT22;22760;51.910;4.474;2022-07-31T08:42:44;20.20;99.90
36816;DHT22;22760;51.910;4.474;2022-07-31T08:45:12;20.20;99.90
36816;DHT22;22760;51.910;4.474;2022-07-31T08:47:41;20.20;99.90
36816;DHT22;22760;51.910;4.474;2022-07-31T08:50:12;20.20;99.90
36816;DHT22;22760;51.910;4.474;2022-07-31T08:52:42;20.20;99.90
36816;DHT22;22760;51.910;4.474;2022-07-31T08:55:09;20.20;99.90
36816;DHT22;22760;51.910;4.474;2022-07-31T08:57:36;20.20;99.90
36816;DHT22;22760;51.910;4.474;2022-07-31T09:00:05;20.30;99.90
36816;DHT22;22760;51.910;4.474;2022-07-31T09:02:33;20.40;99.90
36816;DHT22;22760;51.910;4.474;2022-07-31T09:04:59;20.40;99.90
36816;DHT22;22760;51.910;4.474;2022-07-31T09:07:26;20.60;99.90
36816;DHT22;22760;51.910;4.474;2022-07-31T09:09:54;20.70;99.90
36816;DHT22;22760;51.910;4.474;2022-07-31T09:12:28;20.70;99.90
36816;DHT22;22760;51.910;4.474;2022-07-31T09:14:56;20.70;99.90
36816;DHT22;22760;51.910;4.474;2022-07-31T09:17:31;20.70;99.90
36816;DHT22;22760;51.910;4.474;2022-07-31T09:19:59;20.70;99.90
36816;DHT22;22760;51.910;4.474;2022-07-31T09:22:27;20.70;99.90
36816;DHT22;22760;51.910;4.474;2022-07-31T09:25:07;20.80;99.90
36816;DHT22;22760;51.910;4.474;2022-07-31T09:27:36;20.70;99.90
36816;DHT22;22760;51.910;4.474;2022-07-31T09:30:04;20.60;99.90
36816;DHT22;22760;51.910;4.474;2022-07-31T09:32:31;20.50;99.90
36816;DHT22;22760;51.910;4.474;2022-07-31T09:35:07;20.30;99.90
36816;DHT22;22760;51.910;4.474;2022-07-31T09:37:34;20.20;99.90
36816;DHT22;22760;51.910;4.474;2022-07-31T09:40:01;20.10;99.90
36816;DHT22;22760;51.910;4.474;2022-07-31T09:42:36;19.90;99.90
36816;DHT22;22760;51.910;4.474;2022-07-31T09:45:14;19.90;99.90
36816;DHT22;22760;51.910;4.474;2022-07-31T09:47:42;19.70;99.90
36816;DHT22;22760;51.910;4.474;2022-07-31T09:50:09;19.70;99.90
36816;DHT22;22760;51.910;4.474;2022-07-31T09:52:36;19.70;99.90
36816;DHT22;22760;51.910;4.474;2022-07-31T09:55:05;19.70;99.90
36816;DHT22;22760;51.910;4.474;2022-07-31T09:57:34;19.70;99.90
36816;DHT22;22760;51.910;4.474;2022-07-31T10:00:04;19.70;99.90
36816;DHT22;22760;51.910;4.474;2022-07-31T10:02:31;19.70;99.90
36816;DHT22;22760;51.910;4.474;2022-07-31T10:04:59;19.80;99.90
36816;DHT22;22760;51.910;4.474;2022-07-31T10:07:27;19.80;99.90
36816;DHT22;22760;51.910;4.474;2022-07-31T10:10:00;19.80;99.90
36816;DHT22;22760;51.910;4.474;2022-07-31T10:12:29;19.80;99.90
36816;DHT22;22760;51.910;4.474;2022-07-31T10:15:03;19.90;99.90
36816;DHT22;22760;51.910;4.474;2022-07-31T10:17:32;19.90;99.90
36816;DHT22;22760;51.910;4.474;2022-07-31T10:20:03;19.90;99.90
36816;DHT22;22760;51.910;4.474;2022-07-31T10:22:33;20.00;99.90
36816;DHT22;22760;51.910;4.474;2022-07-31T10:25:01;20.00;99.90
36816;DHT22;22760;51.910;4.474;2022-07-31T10:27:29;20.00;99.90
36816;DHT22;22760;51.910;4.474;2022-07-31T10:29:57;20.00;99.90
36816;DHT22;22760;51.910;4.474;2022-07-31T10:32:25;20.00;99.90
36816;DHT22;22760;51.910;4.474;2022-07-31T10:34:53;19.90;99.90
36816;DHT22;22760;51.910;4.474;2022-07-31T10:37:23;19.90;99.90
36816;DHT22;22760;51.910;4.474;2022-07-31T10:40:01;19.90;99.90
36816;DHT22;22760;51.910;4.474;2022-07-31T10:42:36;19.90;99.90
36816;DHT22;22760;51.910;4.474;2022-07-31T10:45:10;19.90;99.90
36816;DHT22;22760;51.910;4.474;2022-07-31T10:47:38;20.10;99.90
36816;DHT22;22760;51.910;4.474;2022-07-31T10:50:06;20.20;99.90
36816;DHT22;22760;51.910;4.474;2022-07-31T10:52:35;20.40;99.90
36816;DHT22;22760;51.910;4.474;2022-07-31T10:55:13;20.40;99.90
36816;DHT22;22760;51.910;4.474;2022-07-31T10:57:41;20.50;99.90
36816;DHT22;22760;51.910;4.474;2022-07-31T11:00:12;20.60;99.90
36816;DHT22;22760;51.910;4.474;2022-07-31T11:02:42;20.70;99.90
36816;DHT22;22760;51.910;4.474;2022-07-31T11:05:10;20.70;99.90
36816;DHT22;22760;51.910;4.474;2022-07-31T11:07:38;20.80;99.90
36816;DHT22;22760;51.910;4.474;2022-07-31T11:10:14;20.90;99.90
36816;DHT22;22760;51.910;4.474;2022-07-31T11:12:41;21.00;99.90
36816;DHT22;22760;51.910;4.474;2022-07-31T11:15:23;21.00;99.90
36816;DHT22;22760;51.910;4.474;2022-07-31T11:17:51;20.90;99.90
36816;DHT22;22760;51.910;4.474;2022-07-31T11:20:19;20.90;99.90
36816;DHT22;22760;51.910;4.474;2022-07-31T11:22:58;20.90;99.90
36816;DHT22;22760;51.910;4.474;2022-07-31T11:25:26;20.90;99.90
36816;DHT22;22760;51.910;4.474;2022-07-31T11:27:55;20.90;99.90
36816;DHT22;22760;51.910;4.474;2022-07-31T11:30:24;20.90;99.90
36816;DHT22;22760;51.910;4.474;2022-07-31T11:32:51;21.00;99.90
36816;DHT22;22760;51.910;4.474;2022-07-31T11:35:29;21.10;99.90
36816;DHT22;22760;51.910;4.474;2022-07-31T11:37:57;21.20;99.90
36816;DHT22;22760;51.910;4.474;2022-07-31T11:40:24;21.10;99.90
36816;DHT22;22760;51.910;4.474;2022-07-31T11:42:51;21.10;99.90
36816;DHT22;22760;51.910;4.474;2022-07-31T11:45:18;21.00;99.90
36816;DHT22;22760;51.910;4.474;2022-07-31T11:47:47;21.00;99.90
36816;DHT22;22760;51.910;4.474;2022-07-31T11:50:15;21.00;99.90
36816;DHT22;22760;51.910;4.474;2022-07-31T11:52:43;21.00;99.90
36816;DHT22;22760;51.910;4.474;2022-07-31T11:55:13;20.90;99.90
36816;DHT22;22760;51.910;4.474;2022-07-31T11:57:41;21.00;99.90
36816;DHT22;22760;51.910;4.474;2022-07-31T12:00:10;20.90;99.90
36816;DHT22;22760;51.910;4.474;2022-07-31T12:02:42;20.90;99.90
36816;DHT22;22760;51.910;4.474;2022-07-31T12:05:11;20.90;99.90
36816;DHT22;22760;51.910;4.474;2022-07-31T12:07:39;21.00;99.90
36816;DHT22;22760;51.910;4.474;2022-07-31T12:10:09;21.10;99.90
36816;DHT22;22760;51.910;4.474;2022-07-31T12:12:37;21.30;99.90
36816;DHT22;22760;51.910;4.474;2022-07-31T12:15:15;21.50;99.90
36816;DHT22;22760;51.910;4.474;2022-07-31T12:17:43;21.60;99.90
36816;DHT22;22760;51.910;4.474;2022-07-31T12:20:12;21.70;99.90
36816;DHT22;22760;51.910;4.474;2022-07-31T12:22:39;21.70;99.90
36816;DHT22;22760;51.910;4.474;2022-07-31T12:25:08;21.70;99.90
36816;DHT22;22760;51.910;4.474;2022-07-31T12:27:38;21.80;99.90
36816;DHT22;22760;51.910;4.474;2022-07-31T12:30:15;21.90;99.90
36816;DHT22;22760;51.910;4.474;2022-07-31T12:32:43;21.80;99.90
36816;DHT22;22760;51.910;4.474;2022-07-31T12:35:11;21.90;99.90
36816;DHT22;22760;51.910;4.474;2022-07-31T12:37:45;21.80;99.90
36816;DHT22;22760;51.910;4.474;2022-07-31T12:40:23;21.70;99.90
36816;DHT22;22760;51.910;4.474;2022-07-31T12:42:50;21.70;99.90
36816;DHT22;22760;51.910;4.474;2022-07-31T12:45:31;21.70;99.90
36816;DHT22;22760;51.910;4.474;2022-07-31T12:47:58;21.70;99.90
36816;DHT22;22760;51.910;4.474;2022-07-31T12:50:28;21.70;99.90
36816;DHT22;22760;51.910;4.474;2022-07-31T12:52:58;21.60;99.90
36816;DHT22;22760;51.910;4.474;2022-07-31T12:55:27;21.60;99.90
36816;DHT22;22760;51.910;4.474;2022-07-31T12:57:55;21.70;99.90
36816;DHT22;22760;51.910;4.474;2022-07-31T13:00:24;21.60;99.90
36816;DHT22;22760;51.910;4.474;2022-07-31T13:02:51;21.70;99.90
36816;DHT22;22760;51.910;4.474;2022-07-31T13:05:19;21.60;99.90
36816;DHT22;22760;51.910;4.474;2022-07-31T13:07:47;21.70;99.90
36816;DHT22;22760;51.910;4.474;2022-07-31T13:10:14;21.70;99.90
36816;DHT22;22760;51.910;4.474;2022-07-31T13:12:41;21.40;99.90
36816;DHT22;22760;51.910;4.474;2022-07-31T13:15:09;21.40;99.90
36816;DHT22;22760;51.910;4.474;2022-07-31T13:17:36;21.30;99.90
36816;DHT22;22760;51.910;4.474;2022-07-31T13:20:03;21.20;99.90
36816;DHT22;22760;51.910;4.474;2022-07-31T13:22:30;21.20;99.90
36816;DHT22;22760;51.910;4.474;2022-07-31T13:24:58;21.00;99.90
36816;DHT22;22760;51.910;4.474;2022-07-31T13:27:25;20.90;99.90
36816;DHT22;22760;51.910;4.474;2022-07-31T13:29:52;20.70;99.90
36816;DHT22;22760;51.910;4.474;2022-07-31T13:32:19;20.70;99.90
36816;DHT22;22760;51.910;4.474;2022-07-31T13:34:46;20.60;99.90
36816;DHT22;22760;51.910;4.474;2022-07-31T13:37:12;20.50;99.90
36816;DHT22;22760;51.910;4.474;2022-07-31T13:39:39;20.50;99.90
36816;DHT22;22760;51.910;4.474;2022-07-31T13:42:07;20.60;99.90
36816;DHT22;22760;51.910;4.474;2022-07-31T13:44:34;20.60;99.90
36816;DHT22;22760;51.910;4.474;2022-07-31T13:47:01;20.70;99.90
36816;DHT22;22760;51.910;4.474;2022-07-31T13:49:28;20.70;99.90
36816;DHT22;22760;51.910;4.474;2022-07-31T13:51:57;20.70;99.90
36816;DHT22;22760;51.910;4.474;2022-07-31T13:54:24;20.70;99.90
36816;DHT22;22760;51.910;4.474;2022-07-31T13:56:51;20.70;99.90
36816;DHT22;22760;51.910;4.474;2022-07-31T13:59:19;20.70;99.90
36816;DHT22;22760;51.910;4.474;2022-07-31T14:01:46;20.70;99.90
36816;DHT22;22760;51.910;4.474;2022-07-31T14:04:16;20.70;99.90
36816;DHT22;22760;51.910;4.474;2022-07-31T14:06:43;20.70;99.90
36816;DHT22;22760;51.910;4.474;2022-07-31T14:09:10;20.70;99.90
36816;DHT22;22760;51.910;4.474;2022-07-31T14:11:36;20.70;99.90
36816;DHT22;22760;51.910;4.474;2022-07-31T14:14:03;20.70;99.90
36816;DHT22;22760;51.910;4.474;2022-07-31T14:16:31;20.60;99.90
36816;DHT22;22760;51.910;4.474;2022-07-31T14:18:58;20.50;99.90
36816;DHT22;22760;51.910;4.474;2022-07-31T14:21:25;20.40;99.90
36816;DHT22;22760;51.910;4.474;2022-07-31T14:23:52;20.40;99.90
36816;DHT22;22760;51.910;4.474;2022-07-31T14:26:18;20.40;99.90
36816;DHT22;22760;51.910;4.474;2022-07-31T14:28:45;20.30;99.90
36816;DHT22;22760;51.910;4.474;2022-07-31T14:31:14;20.30;99.90
36816;DHT22;22760;51.910;4.474;2022-07-31T14:33:42;20.20;99.90
36816;DHT22;22760;51.910;4.474;2022-07-31T14:36:09;20.20;99.90
36816;DHT22;22760;51.910;4.474;2022-07-31T14:38:36;20.20;99.90
36816;DHT22;22760;51.910;4.474;2022-07-31T14:41:02;20.20;99.90
36816;DHT22;22760;51.910;4.474;2022-07-31T14:43:29;20.10;99.90
36816;DHT22;22760;51.910;4.474;2022-07-31T14:45:56;20.10;99.90
36816;DHT22;22760;51.910;4.474;2022-07-31T14:48:23;20.00;99.90
36816;DHT22;22760;51.910;4.474;2022-07-31T14:50:53;20.00;99.90
36816;DHT22;22760;51.910;4.474;2022-07-31T14:53:19;20.00;99.90
36816;DHT22;22760;51.910;4.474;2022-07-31T14:55:46;19.90;99.90
36816;DHT22;22760;51.910;4.474;2022-07-31T14:58:13;20.00;99.90
36816;DHT22;22760;51.910;4.474;2022-07-31T15:00:40;20.10;99.90
36816;DHT22;22760;51.910;4.474;2022-07-31T15:03:06;20.10;99.90
36816;DHT22;22760;51.910;4.474;2022-07-31T15:05:33;20.10;99.90
36816;DHT22;22760;51.910;4.474;2022-07-31T15:08:01;20.10;99.90
36816;DHT22;22760;51.910;4.474;2022-07-31T15:10:29;20.10;99.90
36816;DHT22;22760;51.910;4.474;2022-07-31T15:12:55;20.10;99.90
36816;DHT22;22760;51.910;4.474;2022-07-31T15:15:22;20.00;99.90
36816;DHT22;22760;51.910;4.474;2022-07-31T15:17:49;20.10;99.90
36816;DHT22;22760;51.910;4.474;2022-07-31T15:20:16;20.10;99.90
36816;DHT22;22760;51.910;4.474;2022-07-31T15:22:42;20.10;99.90
36816;DHT22;22760;51.910;4.474;2022-07-31T15:25:10;20.10;99.90
36816;DHT22;22760;51.910;4.474;2022-07-31T15:27:39;20.10;99.90
36816;DHT22;22760;51.910;4.474;2022-07-31T15:30:06;20.10;99.90
36816;DHT22;22760;51.910;4.474;2022-07-31T15:32:34;20.10;99.90
36816;DHT22;22760;51.910;4.474;2022-07-31T15:35:01;20.10;99.90
36816;DHT22;22760;51.910;4.474;2022-07-31T15:37:28;20.10;99.90